sensor_id;sensor_type;location;lat;lon;timestamp;temperature;humidity
11239;DHT22;5677;48.488;13.436;2023-05-23T00:00:02;17.80;50.60
11239;DHT22;5677;48.488;13.436;2023-05-23T00:02:31;17.90;50.70
11239;DHT22;5677;48.488;13.436;2023-05-23T00:04:59;17.80;50.60
11239;DHT22;5677;48.488;13.436;2023-05-23T00:07:28;17.80;50.60
11239;DHT22;5677;48.488;13.436;2023-05-23T00:09:56;17.90;50.70
11239;DHT22;5677;48.488;13.436;2023-05-23T00:12:23;17.80;50.60
11239;DHT22;5677;48.488;13.436;2023-05-23T00:14:50;17.80;50.60
11239;DHT22;5677;48.488;13.436;2023-05-23T00:17:17;17.80;50.60
11239;DHT22;5677;48.488;13.436;2023-05-23T00:19:46;17.80;50.60
11239;DHT22;5677;48.488;13.436;2023-05-23T00:22:13;17.80;50.60
11239;DHT22;5677;48.488;13.436;2023-05-23T00:24:41;17.80;50.60
11239;DHT22;5677;48.488;13.436;2023-05-23T00:27:07;17.80;50.60
11239;DHT22;5677;48.488;13.436;2023-05-23T00:29:34;17.80;50.60
11239;DHT22;5677;48.488;13.436;2023-05-23T00:32:01;17.80;50.60
11239;DHT22;5677;48.488;13.436;2023-05-23T00:34:27;17.80;50.70
11239;DHT22;5677;48.488;13.436;2023-05-23T00:36:57;17.80;50.60
11239;DHT22;5677;48.488;13.436;2023-05-23T00:39:24;17.80;50.60
11239;DHT22;5677;48.488;13.436;2023-05-23T00:41:50;17.80;51.30
11239;DHT22;5677;48.488;13.436;2023-05-23T00:44:18;17.80;50.60
11239;DHT22;5677;48.488;13.436;2023-05-23T00:46:48;17.80;50.60
11239;DHT22;5677;48.488;13.436;2023-05-23T00:49:16;17.80;50.60
11239;DHT22;5677;48.488;13.436;2023-05-23T00:51:44;17.80;50.70
11239;DHT22;5677;48.488;13.436;2023-05-23T00:54:12;17.80;50.70
11239;DHT22;5677;48.488;13.436;2023-05-23T00:56:41;17.80;50.70
11239;DHT22;5677;48.488;13.436;2023-05-23T00:59:08;17.80;50.70
11239;DHT22;5677;48.488;13.436;2023-05-23T01:01:35;17.80;50.70
11239;DHT22;5677;48.488;13.436;2023-05-23T01:04:02;17.80;50.70
11239;DHT22;5677;48.488;13.436;2023-05-23T01:06:29;17.80;50.60
11239;DHT22;5677;48.488;13.436;2023-05-23T01:08:58;17.80;50.70
11239;DHT22;5677;48.488;13.436;2023-05-23T01:11:32;17.80;50.70
11239;DHT22;5677;48.488;13.436;2023-05-23T01:14:05;17.80;50.70
11239;DHT22;5677;48.488;13.436;2023-05-23T01:16:41;17.80;50.70
11239;DHT22;5677;48.488;13.436;2023-05-23T01:19:32;17.80;50.70
11239;DHT22;5677;48.488;13.436;2023-05-23T01:22:08;17.80;50.70
11239;DHT22;5677;48.488;13.436;2023-05-23T01:24:43;17.80;50.70
11239;DHT22;5677;48.488;13.436;2023-05-23T01:27:22;17.80;50.70
11239;DHT22;5677;48.488;13.436;2023-05-23T01:29:54;17.80;50.70
11239;DHT22;5677;48.488;13.436;2023-05-23T01:32:23;17.80;50.70
11239;DHT22;5677;48.488;13.436;2023-05-23T01:34:52;17.80;50.70
11239;DHT22;5677;48.488;13.436;2023-05-23T01:37:19;17.80;50.70
11239;DHT22;5677;48.488;13.436;2023-05-23T01:39:46;17.80;50.70
11239;DHT22;5677;48.488;13.436;2023-05-23T01:42:13;17.70;50.70
11239;DHT22;5677;48.488;13.436;2023-05-23T01:44:40;17.70;50.70
11239;DHT22;5677;48.488;13.436;2023-05-23T01:47:09;17.70;50.80
11239;DHT22;5677;48.488;13.436;2023-05-23T01:49:37;17.70;50.70
11239;DHT22;5677;48.488;13.436;2023-05-23T01:52:05;17.70;50.70
11239;DHT22;5677;48.488;13.436;2023-05-23T01:54:36;17.70;50.70
11239;DHT22;5677;48.488;13.436;2023-05-23T01:57:04;17.70;50.80
11239;DHT22;5677;48.488;13.436;2023-05-23T01:59:31;17.70;50.70
11239;DHT22;5677;48.488;13.436;2023-05-23T02:01:58;17.70;50.70
11239;DHT22;5677;48.488;13.436;2023-05-23T02:04:27;17.70;50.80
11239;DHT22;5677;48.488;13.436;2023-05-23T02:06:53;17.70;50.80
11239;DHT22;5677;48.488;13.436;2023-05-23T02:09:20;17.70;50.80
11239;DHT22;5677;48.488;13.436;2023-05-23T02:11:47;17.70;50.80
11239;DHT22;5677;48.488;13.436;2023-05-23T02:14:14;17.70;50.80
11239;DHT22;5677;48.488;13.436;2023-05-23T02:16:40;17.70;50.80
11239;DHT22;5677;48.488;13.436;2023-05-23T02:19:07;17.70;50.80
11239;DHT22;5677;48.488;13.436;2023-05-23T02:21:35;17.70;50.80
11239;DHT22;5677;48.488;13.436;2023-05-23T02:24:02;17.70;50.80
11239;DHT22;5677;48.488;13.436;2023-05-23T02:26:29;17.70;50.80
11239;DHT22;5677;48.488;13.436;2023-05-23T02:28:55;17.70;50.80
11239;DHT22;5677;48.488;13.436;2023-05-23T02:31:22;17.70;50.80
11239;DHT22;5677;48.488;13.436;2023-05-23T02:33:49;17.70;50.80
11239;DHT22;5677;48.488;13.436;2023-05-23T02:36:15;17.70;50.80
11239;DHT22;5677;48.488;13.436;2023-05-23T02:38:43;17.70;50.90
11239;DHT22;5677;48.488;13.436;2023-05-23T02:41:10;17.70;50.80
11239;DHT22;5677;48.488;13.436;2023-05-23T02:43:37;17.70;50.80
11239;DHT22;5677;48.488;13.436;2023-05-23T02:46:04;17.60;50.80
11239;DHT22;5677;48.488;13.436;2023-05-23T02:48:30;17.70;50.90
11239;DHT22;5677;48.488;13.436;2023-05-23T02:50:57;17.60;50.70
11239;DHT22;5677;48.488;13.436;2023-05-23T02:53:24;17.60;50.70
11239;DHT22;5677;48.488;13.436;2023-05-23T02:55:52;17.60;50.80
11239;DHT22;5677;48.488;13.436;2023-05-23T02:58:19;17.70;50.90
11239;DHT22;5677;48.488;13.436;2023-05-23T03:00:46;17.70;50.90
11239;DHT22;5677;48.488;13.436;2023-05-23T03:03:13;17.60;50.80
11239;DHT22;5677;48.488;13.436;2023-05-23T03:05:41;17.70;50.90
11239;DHT22;5677;48.488;13.436;2023-05-23T03:08:07;17.60;50.80
11239;DHT22;5677;48.488;13.436;2023-05-23T03:10:35;17.60;50.80
11239;DHT22;5677;48.488;13.436;2023-05-23T03:13:03;17.70;50.90
11239;DHT22;5677;48.488;13.436;2023-05-23T03:15:29;17.70;50.90
11239;DHT22;5677;48.488;13.436;2023-05-23T03:17:56;17.70;50.90
11239;DHT22;5677;48.488;13.436;2023-05-23T03:20:23;17.60;50.80
11239;DHT22;5677;48.488;13.436;2023-05-23T03:22:49;17.60;50.80
11239;DHT22;5677;48.488;13.436;2023-05-23T03:25:16;17.70;50.90
11239;DHT22;5677;48.488;13.436;2023-05-23T03:27:43;17.70;51.00
11239;DHT22;5677;48.488;13.436;2023-05-23T03:30:12;17.70;50.90
11239;DHT22;5677;48.488;13.436;2023-05-23T03:32:38;17.70;50.90
11239;DHT22;5677;48.488;13.436;2023-05-23T03:35:06;17.60;50.90
11239;DHT22;5677;48.488;13.436;2023-05-23T03:37:33;17.60;50.80
11239;DHT22;5677;48.488;13.436;2023-05-23T03:40:00;17.70;50.90
11239;DHT22;5677;48.488;13.436;2023-05-23T03:42:27;17.60;50.90
11239;DHT22;5677;48.488;13.436;2023-05-23T03:44:53;17.60;50.90
11239;DHT22;5677;48.488;13.436;2023-05-23T03:47:22;17.60;50.80
11239;DHT22;5677;48.488;13.436;2023-05-23T03:49:49;17.60;50.90
11239;DHT22;5677;48.488;13.436;2023-05-23T03:52:16;17.60;50.90
11239;DHT22;5677;48.488;13.436;2023-05-23T03:54:42;17.60;50.90
11239;DHT22;5677;48.488;13.436;2023-05-23T03:57:09;17.60;50.90
11239;DHT22;5677;48.488;13.436;2023-05-23T03:59:36;17.60;50.80
11239;DHT22;5677;48.488;13.436;2023-05-23T04:02:03;17.60;50.90
11239;DHT22;5677;48.488;13.436;2023-05-23T04:04:31;17.60;50.90
11239;DHT22;5677;48.488;13.436;2023-05-23T04:06:58;17.60;50.90
11239;DHT22;5677;48.488;13.436;2023-05-23T04:09:26;17.60;50.90
11239;DHT22;5677;48.488;13.436;2023-05-23T04:11:52;17.60;50.90
11239;DHT22;5677;48.488;13.436;2023-05-23T04:14:19;17.60;50.90
11239;DHT22;5677;48.488;13.436;2023-05-23T04:16:47;17.60;50.90
11239;DHT22;5677;48.488;13.436;2023-05-23T04:19:13;17.60;51.60
11239;DHT22;5677;48.488;13.436;2023-05-23T04:21:42;17.60;50.90
11239;DHT22;5677;48.488;13.436;2023-05-23T04:24:09;17.60;50.90
11239;DHT22;5677;48.488;13.436;2023-05-23T04:26:35;17.60;50.90
11239;DHT22;5677;48.488;13.436;2023-05-23T04:29:04;17.60;50.90
11239;DHT22;5677;48.488;13.436;2023-05-23T04:31:31;17.60;50.90
11239;DHT22;5677;48.488;13.436;2023-05-23T04:33:59;17.60;50.80
11239;DHT22;5677;48.488;13.436;2023-05-23T04:36:26;17.60;50.90
11239;DHT22;5677;48.488;13.436;2023-05-23T04:38:55;17.60;50.90
11239;DHT22;5677;48.488;13.436;2023-05-23T04:41:22;17.60;50.80
11239;DHT22;5677;48.488;13.436;2023-05-23T04:43:49;17.60;50.80
11239;DHT22;5677;48.488;13.436;2023-05-23T04:46:18;17.60;50.90
11239;DHT22;5677;48.488;13.436;2023-05-23T04:48:47;17.60;50.80
11239;DHT22;5677;48.488;13.436;2023-05-23T04:51:15;17.60;50.90
11239;DHT22;5677;48.488;13.436;2023-05-23T04:53:41;17.60;50.80
11239;DHT22;5677;48.488;13.436;2023-05-23T04:56:10;17.60;50.80
11239;DHT22;5677;48.488;13.436;2023-05-23T04:58:36;17.60;50.80
11239;DHT22;5677;48.488;13.436;2023-05-23T05:01:05;17.70;50.90
11239;DHT22;5677;48.488;13.436;2023-05-23T05:03:34;17.60;50.80
11239;DHT22;5677;48.488;13.436;2023-05-23T05:06:01;17.70;50.90
11239;DHT22;5677;48.488;13.436;2023-05-23T05:08:28;17.60;50.80
11239;DHT22;5677;48.488;13.436;2023-05-23T05:10:55;17.60;50.80
11239;DHT22;5677;48.488;13.436;2023-05-23T05:13:23;17.60;50.80
11239;DHT22;5677;48.488;13.436;2023-05-23T05:15:50;17.60;50.80
11239;DHT22;5677;48.488;13.436;2023-05-23T05:18:18;17.60;50.70
11239;DHT22;5677;48.488;13.436;2023-05-23T05:20:44;17.70;50.90
11239;DHT22;5677;48.488;13.436;2023-05-23T05:23:11;17.60;50.70
11239;DHT22;5677;48.488;13.436;2023-05-23T05:25:38;17.70;50.90
11239;DHT22;5677;48.488;13.436;2023-05-23T05:28:05;17.70;50.90
11239;DHT22;5677;48.488;13.436;2023-05-23T05:30:33;17.70;50.90
11239;DHT22;5677;48.488;13.436;2023-05-23T05:33:00;17.70;50.90
11239;DHT22;5677;48.488;13.436;2023-05-23T05:35:29;17.60;50.80
11239;DHT22;5677;48.488;13.436;2023-05-23T05:37:56;17.70;50.90
11239;DHT22;5677;48.488;13.436;2023-05-23T05:40:22;17.60;50.80
11239;DHT22;5677;48.488;13.436;2023-05-23T05:42:49;17.70;50.90
11239;DHT22;5677;48.488;13.436;2023-05-23T05:45:16;17.70;50.90
11239;DHT22;5677;48.488;13.436;2023-05-23T05:47:44;17.60;50.80
11239;DHT22;5677;48.488;13.436;2023-05-23T05:50:11;17.70;50.90
11239;DHT22;5677;48.488;13.436;2023-05-23T05:52:38;17.70;50.90
11239;DHT22;5677;48.488;13.436;2023-05-23T05:55:05;17.70;50.80
11239;DHT22;5677;48.488;13.436;2023-05-23T05:57:32;17.70;50.80
11239;DHT22;5677;48.488;13.436;2023-05-23T05:59:59;17.70;50.80
11239;DHT22;5677;48.488;13.436;2023-05-23T06:02:26;17.70;50.80
11239;DHT22;5677;48.488;13.436;2023-05-23T06:04:54;17.70;50.80
11239;DHT22;5677;48.488;13.436;2023-05-23T06:07:20;17.70;50.80
11239;DHT22;5677;48.488;13.436;2023-05-23T06:09:47;17.70;50.70
11239;DHT22;5677;48.488;13.436;2023-05-23T06:12:14;17.70;50.80
11239;DHT22;5677;48.488;13.436;2023-05-23T06:14:40;17.70;50.70
11239;DHT22;5677;48.488;13.436;2023-05-23T06:17:07;17.70;50.70
11239;DHT22;5677;48.488;13.436;2023-05-23T06:19:34;17.80;50.70
11239;DHT22;5677;48.488;13.436;2023-05-23T06:22:03;17.80;50.70
11239;DHT22;5677;48.488;13.436;2023-05-23T06:24:30;17.80;50.60
11239;DHT22;5677;48.488;13.436;2023-05-23T06:26:56;17.80;50.60
11239;DHT22;5677;48.488;13.436;2023-05-23T06:29:23;17.80;50.50
11239;DHT22;5677;48.488;13.436;2023-05-23T06:31:50;17.90;50.60
11239;DHT22;5677;48.488;13.436;2023-05-23T06:34:17;17.80;50.50
11239;DHT22;5677;48.488;13.436;2023-05-23T06:36:44;17.90;50.50
11239;DHT22;5677;48.488;13.436;2023-05-23T06:39:12;17.90;50.50
11239;DHT22;5677;48.488;13.436;2023-05-23T06:41:39;17.90;51.10
11239;DHT22;5677;48.488;13.436;2023-05-23T06:44:06;17.90;50.40
11239;DHT22;5677;48.488;13.436;2023-05-23T06:46:33;18.00;50.30
11239;DHT22;5677;48.488;13.436;2023-05-23T06:48:59;18.00;50.30
11239;DHT22;5677;48.488;13.436;2023-05-23T06:51:26;18.00;50.20
11239;DHT22;5677;48.488;13.436;2023-05-23T06:53:53;18.10;50.30
11239;DHT22;5677;48.488;13.436;2023-05-23T06:56:22;18.10;50.20
11239;DHT22;5677;48.488;13.436;2023-05-23T06:58:49;18.10;50.20
11239;DHT22;5677;48.488;13.436;2023-05-23T07:01:15;18.10;50.10
11239;DHT22;5677;48.488;13.436;2023-05-23T07:03:42;18.10;50.10
11239;DHT22;5677;48.488;13.436;2023-05-23T07:06:10;18.10;50.00
11239;DHT22;5677;48.488;13.436;2023-05-23T07:08:37;18.10;50.10
11239;DHT22;5677;48.488;13.436;2023-05-23T07:11:04;18.10;50.00
11239;DHT22;5677;48.488;13.436;2023-05-23T07:13:32;18.10;50.00
11239;DHT22;5677;48.488;13.436;2023-05-23T07:15:59;18.20;50.00
11239;DHT22;5677;48.488;13.436;2023-05-23T07:18:25;18.20;49.90
11239;DHT22;5677;48.488;13.436;2023-05-23T07:20:52;18.20;49.90
11239;DHT22;5677;48.488;13.436;2023-05-23T07:23:21;18.20;49.80
11239;DHT22;5677;48.488;13.436;2023-05-23T07:25:48;18.20;49.80
11239;DHT22;5677;48.488;13.436;2023-05-23T07:28:15;18.20;49.80
11239;DHT22;5677;48.488;13.436;2023-05-23T07:30:43;18.30;49.80
11239;DHT22;5677;48.488;13.436;2023-05-23T07:33:09;18.30;49.80
11239;DHT22;5677;48.488;13.436;2023-05-23T07:35:36;18.20;49.70
11239;DHT22;5677;48.488;13.436;2023-05-23T07:38:03;18.30;49.80
11239;DHT22;5677;48.488;13.436;2023-05-23T07:40:29;18.30;49.70
11239;DHT22;5677;48.488;13.436;2023-05-23T07:42:56;18.30;49.70
11239;DHT22;5677;48.488;13.436;2023-05-23T07:45:24;18.30;49.70
11239;DHT22;5677;48.488;13.436;2023-05-23T07:47:52;18.30;49.70
11239;DHT22;5677;48.488;13.436;2023-05-23T07:50:19;18.30;49.70
11239;DHT22;5677;48.488;13.436;2023-05-23T07:52:46;18.30;49.70
11239;DHT22;5677;48.488;13.436;2023-05-23T07:55:13;18.30;49.70
11239;DHT22;5677;48.488;13.436;2023-05-23T07:57:40;18.30;49.80
11239;DHT22;5677;48.488;13.436;2023-05-23T08:00:07;18.30;49.70
11239;DHT22;5677;48.488;13.436;2023-05-23T08:02:35;18.30;49.80
11239;DHT22;5677;48.488;13.436;2023-05-23T08:05:03;18.30;49.80
11239;DHT22;5677;48.488;13.436;2023-05-23T08:07:31;18.30;50.50
11239;DHT22;5677;48.488;13.436;2023-05-23T08:09:58;18.20;49.70
11239;DHT22;5677;48.488;13.436;2023-05-23T08:12:24;18.20;49.80
11239;DHT22;5677;48.488;13.436;2023-05-23T08:14:51;18.30;49.90
11239;DHT22;5677;48.488;13.436;2023-05-23T08:17:18;18.30;49.90
11239;DHT22;5677;48.488;13.436;2023-05-23T08:19:45;18.30;49.90
11239;DHT22;5677;48.488;13.436;2023-05-23T08:22:13;18.30;49.80
11239;DHT22;5677;48.488;13.436;2023-05-23T08:24:40;18.30;49.80
11239;DHT22;5677;48.488;13.436;2023-05-23T08:27:07;18.30;49.80
11239;DHT22;5677;48.488;13.436;2023-05-23T08:29:33;18.30;49.80
11239;DHT22;5677;48.488;13.436;2023-05-23T08:32:01;18.40;49.70
11239;DHT22;5677;48.488;13.436;2023-05-23T08:34:28;18.40;49.80
11239;DHT22;5677;48.488;13.436;2023-05-23T08:36:55;18.40;49.70
11239;DHT22;5677;48.488;13.436;2023-05-23T08:39:23;18.40;49.70
11239;DHT22;5677;48.488;13.436;2023-05-23T08:41:50;18.40;49.80
11239;DHT22;5677;48.488;13.436;2023-05-23T08:44:17;18.40;49.70
11239;DHT22;5677;48.488;13.436;2023-05-23T08:46:45;18.40;49.70
11239;DHT22;5677;48.488;13.436;2023-05-23T08:49:15;18.40;49.70
11239;DHT22;5677;48.488;13.436;2023-05-23T08:51:43;18.40;49.70
11239;DHT22;5677;48.488;13.436;2023-05-23T08:54:11;18.40;49.60
11239;DHT22;5677;48.488;13.436;2023-05-23T08:56:40;18.40;49.70
11239;DHT22;5677;48.488;13.436;2023-05-23T08:59:09;18.40;49.60
11239;DHT22;5677;48.488;13.436;2023-05-23T09:01:37;18.50;49.70
11239;DHT22;5677;48.488;13.436;2023-05-23T09:04:05;18.40;49.60
11239;DHT22;5677;48.488;13.436;2023-05-23T09:06:33;18.40;49.60
11239;DHT22;5677;48.488;13.436;2023-05-23T09:09:00;18.40;49.60
11239;DHT22;5677;48.488;13.436;2023-05-23T09:11:28;18.40;49.60
11239;DHT22;5677;48.488;13.436;2023-05-23T09:13:56;18.50;49.70
11239;DHT22;5677;48.488;13.436;2023-05-23T09:16:23;18.50;49.70
11239;DHT22;5677;48.488;13.436;2023-05-23T09:18:57;18.50;49.80
11239;DHT22;5677;48.488;13.436;2023-05-23T09:21:23;18.50;49.80
11239;DHT22;5677;48.488;13.436;2023-05-23T09:23:51;18.40;49.70
11239;DHT22;5677;48.488;13.436;2023-05-23T09:26:18;18.40;49.70
11239;DHT22;5677;48.488;13.436;2023-05-23T09:28:44;18.50;49.80
11239;DHT22;5677;48.488;13.436;2023-05-23T09:31:12;18.50;49.80
11239;DHT22;5677;48.488;13.436;2023-05-23T09:33:44;18.50;49.80
11239;DHT22;5677;48.488;13.436;2023-05-23T09:36:11;18.50;49.80
11239;DHT22;5677;48.488;13.436;2023-05-23T09:38:39;18.50;49.80
11239;DHT22;5677;48.488;13.436;2023-05-23T09:41:06;18.50;49.80
11239;DHT22;5677;48.488;13.436;2023-05-23T09:43:33;18.50;49.80
11239;DHT22;5677;48.488;13.436;2023-05-23T09:46:06;18.50;49.80
11239;DHT22;5677;48.488;13.436;2023-05-23T09:48:34;18.50;49.80
11239;DHT22;5677;48.488;13.436;2023-05-23T09:51:03;18.50;49.80
11239;DHT22;5677;48.488;13.436;2023-05-23T09:53:30;18.50;49.80
11239;DHT22;5677;48.488;13.436;2023-05-23T09:55:58;18.60;49.80
11239;DHT22;5677;48.488;13.436;2023-05-23T09:58:26;18.50;49.80
11239;DHT22;5677;48.488;13.436;2023-05-23T10:00:54;18.60;49.80
11239;DHT22;5677;48.488;13.436;2023-05-23T10:03:26;18.50;49.70
11239;DHT22;5677;48.488;13.436;2023-05-23T10:05:56;18.60;49.80
11239;DHT22;5677;48.488;13.436;2023-05-23T10:08:29;18.60;49.70
11239;DHT22;5677;48.488;13.436;2023-05-23T10:13:58;18.50;49.80
11239;DHT22;5677;48.488;13.436;2023-05-23T10:16:30;18.50;49.80
11239;DHT22;5677;48.488;13.436;2023-05-23T10:19:05;18.50;49.80
11239;DHT22;5677;48.488;13.436;2023-05-23T10:21:37;18.50;49.90
11239;DHT22;5677;48.488;13.436;2023-05-23T10:24:06;18.50;49.90
11239;DHT22;5677;48.488;13.436;2023-05-23T10:26:34;18.50;49.90
11239;DHT22;5677;48.488;13.436;2023-05-23T10:29:01;18.50;49.90
11239;DHT22;5677;48.488;13.436;2023-05-23T10:31:30;18.50;49.90
11239;DHT22;5677;48.488;13.436;2023-05-23T10:34:03;18.50;49.90
11239;DHT22;5677;48.488;13.436;2023-05-23T10:36:42;18.50;49.90
11239;DHT22;5677;48.488;13.436;2023-05-23T10:39:15;18.50;49.90
11239;DHT22;5677;48.488;13.436;2023-05-23T10:41:50;18.50;50.00
11239;DHT22;5677;48.488;13.436;2023-05-23T10:44:19;18.50;50.00
11239;DHT22;5677;48.488;13.436;2023-05-23T10:46:50;18.50;50.00
11239;DHT22;5677;48.488;13.436;2023-05-23T10:49:16;18.50;50.00
11239;DHT22;5677;48.488;13.436;2023-05-23T10:51:47;18.60;50.00
11239;DHT22;5677;48.488;13.436;2023-05-23T10:54:14;18.60;50.00
11239;DHT22;5677;48.488;13.436;2023-05-23T10:56:43;18.60;50.00
11239;DHT22;5677;48.488;13.436;2023-05-23T10:59:19;18.60;50.00
11239;DHT22;5677;48.488;13.436;2023-05-23T11:01:46;18.60;50.00
11239;DHT22;5677;48.488;13.436;2023-05-23T11:04:24;18.60;50.00
11239;DHT22;5677;48.488;13.436;2023-05-23T11:06:53;18.60;50.00
11239;DHT22;5677;48.488;13.436;2023-05-23T11:09:20;18.60;50.00
11239;DHT22;5677;48.488;13.436;2023-05-23T11:11:54;18.60;50.00
11239;DHT22;5677;48.488;13.436;2023-05-23T11:17:16;18.60;50.00
11239;DHT22;5677;48.488;13.436;2023-05-23T11:19:55;18.60;50.00
11239;DHT22;5677;48.488;13.436;2023-05-23T11:22:28;18.60;50.00
11239;DHT22;5677;48.488;13.436;2023-05-23T11:24:55;18.60;50.00
11239;DHT22;5677;48.488;13.436;2023-05-23T11:27:26;18.60;50.10
11239;DHT22;5677;48.488;13.436;2023-05-23T11:30:02;18.60;50.00
11239;DHT22;5677;48.488;13.436;2023-05-23T11:32:30;18.60;50.10
11239;DHT22;5677;48.488;13.436;2023-05-23T11:35:00;18.60;50.10
11239;DHT22;5677;48.488;13.436;2023-05-23T11:37:29;18.60;50.10
11239;DHT22;5677;48.488;13.436;2023-05-23T11:39:56;18.60;50.10
11239;DHT22;5677;48.488;13.436;2023-05-23T11:42:23;18.70;50.20
11239;DHT22;5677;48.488;13.436;2023-05-23T11:44:50;18.70;50.20
11239;DHT22;5677;48.488;13.436;2023-05-23T11:47:18;18.70;50.90
11239;DHT22;5677;48.488;13.436;2023-05-23T11:49:45;18.70;50.20
11239;DHT22;5677;48.488;13.436;2023-05-23T11:52:13;18.70;50.20
11239;DHT22;5677;48.488;13.436;2023-05-23T11:54:41;18.70;50.20
11239;DHT22;5677;48.488;13.436;2023-05-23T11:57:08;18.70;50.20
11239;DHT22;5677;48.488;13.436;2023-05-23T11:59:35;18.70;50.20
11239;DHT22;5677;48.488;13.436;2023-05-23T12:02:06;18.70;50.30
11239;DHT22;5677;48.488;13.436;2023-05-23T12:04:34;18.70;50.20
11239;DHT22;5677;48.488;13.436;2023-05-23T12:07:03;18.70;50.20
11239;DHT22;5677;48.488;13.436;2023-05-23T12:09:31;18.70;50.20
11239;DHT22;5677;48.488;13.436;2023-05-23T12:11:59;18.70;50.20
11239;DHT22;5677;48.488;13.436;2023-05-23T12:14:28;18.70;50.20
11239;DHT22;5677;48.488;13.436;2023-05-23T12:16:54;18.70;50.20
11239;DHT22;5677;48.488;13.436;2023-05-23T12:19:22;18.70;50.30
11239;DHT22;5677;48.488;13.436;2023-05-23T12:21:49;18.70;50.30
11239;DHT22;5677;48.488;13.436;2023-05-23T12:24:16;18.70;50.40
11239;DHT22;5677;48.488;13.436;2023-05-23T12:26:51;18.70;50.40
11239;DHT22;5677;48.488;13.436;2023-05-23T12:29:20;18.70;50.40
11239;DHT22;5677;48.488;13.436;2023-05-23T12:31:48;18.70;50.40
11239;DHT22;5677;48.488;13.436;2023-05-23T12:34:15;18.70;50.40
11239;DHT22;5677;48.488;13.436;2023-05-23T12:36:42;18.70;50.40
11239;DHT22;5677;48.488;13.436;2023-05-23T12:39:10;18.70;50.40
11239;DHT22;5677;48.488;13.436;2023-05-23T12:41:40;18.70;50.50
11239;DHT22;5677;48.488;13.436;2023-05-23T12:44:07;18.70;50.50
11239;DHT22;5677;48.488;13.436;2023-05-23T12:46:35;18.70;50.50
11239;DHT22;5677;48.488;13.436;2023-05-23T12:49:02;18.60;50.40
11239;DHT22;5677;48.488;13.436;2023-05-23T12:51:29;18.60;50.50
11239;DHT22;5677;48.488;13.436;2023-05-23T12:53:56;18.60;50.40
11239;DHT22;5677;48.488;13.436;2023-05-23T12:56:23;18.60;50.50
11239;DHT22;5677;48.488;13.436;2023-05-23T12:58:50;18.60;50.50
11239;DHT22;5677;48.488;13.436;2023-05-23T13:01:18;18.70;50.50
11239;DHT22;5677;48.488;13.436;2023-05-23T13:03:46;18.70;50.50
11239;DHT22;5677;48.488;13.436;2023-05-23T13:06:13;18.70;50.50
11239;DHT22;5677;48.488;13.436;2023-05-23T13:08:39;18.70;50.50
11239;DHT22;5677;48.488;13.436;2023-05-23T13:11:07;18.70;50.50
11239;DHT22;5677;48.488;13.436;2023-05-23T13:13:34;18.70;50.50
11239;DHT22;5677;48.488;13.436;2023-05-23T13:16:01;18.70;50.40
11239;DHT22;5677;48.488;13.436;2023-05-23T13:18:27;18.70;50.40
11239;DHT22;5677;48.488;13.436;2023-05-23T13:20:56;18.70;50.40
11239;DHT22;5677;48.488;13.436;2023-05-23T13:23:22;18.70;50.40
11239;DHT22;5677;48.488;13.436;2023-05-23T13:25:50;18.80;50.40
11239;DHT22;5677;48.488;13.436;2023-05-23T13:28:17;18.70;50.40
11239;DHT22;5677;48.488;13.436;2023-05-23T13:30:44;18.70;50.40
11239;DHT22;5677;48.488;13.436;2023-05-23T13:33:11;18.70;50.40
11239;DHT22;5677;48.488;13.436;2023-05-23T13:35:37;18.70;50.40
11239;DHT22;5677;48.488;13.436;2023-05-23T13:38:05;18.80;50.40
11239;DHT22;5677;48.488;13.436;2023-05-23T13:40:32;18.80;50.40
11239;DHT22;5677;48.488;13.436;2023-05-23T13:42:59;18.80;50.40
11239;DHT22;5677;48.488;13.436;2023-05-23T13:45:26;18.80;50.40
11239;DHT22;5677;48.488;13.436;2023-05-23T13:47:52;18.80;50.40
11239;DHT22;5677;48.488;13.436;2023-05-23T13:50:19;18.80;50.30
11239;DHT22;5677;48.488;13.436;2023-05-23T13:52:46;18.80;50.30
11239;DHT22;5677;48.488;13.436;2023-05-23T13:55:14;18.80;50.40
11239;DHT22;5677;48.488;13.436;2023-05-23T13:57:41;18.80;50.30
11239;DHT22;5677;48.488;13.436;2023-05-23T14:00:09;18.80;50.30
11239;DHT22;5677;48.488;13.436;2023-05-23T14:02:36;18.80;50.30
11239;DHT22;5677;48.488;13.436;2023-05-23T14:05:03;18.80;50.30
11239;DHT22;5677;48.488;13.436;2023-05-23T14:07:31;18.80;50.40
11239;DHT22;5677;48.488;13.436;2023-05-23T14:09:58;18.80;50.40
11239;DHT22;5677;48.488;13.436;2023-05-23T14:12:26;18.80;50.40
11239;DHT22;5677;48.488;13.436;2023-05-23T14:14:53;18.80;50.50
11239;DHT22;5677;48.488;13.436;2023-05-23T14:17:19;18.80;50.80
11239;DHT22;5677;48.488;13.436;2023-05-23T14:19:46;18.80;50.80
11239;DHT22;5677;48.488;13.436;2023-05-23T14:22:13;18.80;50.80
11239;DHT22;5677;48.488;13.436;2023-05-23T14:24:39;18.80;50.90
11239;DHT22;5677;48.488;13.436;2023-05-23T14:27:06;18.90;51.00
11239;DHT22;5677;48.488;13.436;2023-05-23T14:29:34;18.90;51.00
11239;DHT22;5677;48.488;13.436;2023-05-23T14:32:01;18.90;51.10
11239;DHT22;5677;48.488;13.436;2023-05-23T14:34:28;18.80;51.00
11239;DHT22;5677;48.488;13.436;2023-05-23T14:36:55;18.80;51.00
11239;DHT22;5677;48.488;13.436;2023-05-23T14:39:21;18.80;51.10
11239;DHT22;5677;48.488;13.436;2023-05-23T14:41:49;18.80;51.10
11239;DHT22;5677;48.488;13.436;2023-05-23T14:44:16;18.80;51.10
11239;DHT22;5677;48.488;13.436;2023-05-23T14:46:44;18.80;51.20
11239;DHT22;5677;48.488;13.436;2023-05-23T14:49:13;18.80;51.30
11239;DHT22;5677;48.488;13.436;2023-05-23T14:51:40;18.80;51.40
11239;DHT22;5677;48.488;13.436;2023-05-23T14:54:06;18.80;51.40
11239;DHT22;5677;48.488;13.436;2023-05-23T14:56:33;18.80;51.50
11239;DHT22;5677;48.488;13.436;2023-05-23T14:59:00;18.80;51.50
11239;DHT22;5677;48.488;13.436;2023-05-23T15:01:27;18.80;51.50
11239;DHT22;5677;48.488;13.436;2023-05-23T15:03:55;18.80;51.50
11239;DHT22;5677;48.488;13.436;2023-05-23T15:06:22;18.80;51.50
11239;DHT22;5677;48.488;13.436;2023-05-23T15:08:49;18.80;51.50
11239;DHT22;5677;48.488;13.436;2023-05-23T15:11:16;18.80;51.60
11239;DHT22;5677;48.488;13.436;2023-05-23T15:13:43;18.80;51.60
11239;DHT22;5677;48.488;13.436;2023-05-23T15:16:10;18.80;51.70
11239;DHT22;5677;48.488;13.436;2023-05-23T15:18:37;18.80;51.70
11239;DHT22;5677;48.488;13.436;2023-05-23T15:21:06;18.80;51.70
11239;DHT22;5677;48.488;13.436;2023-05-23T15:23:33;18.80;51.70
11239;DHT22;5677;48.488;13.436;2023-05-23T15:25:59;18.80;51.70
11239;DHT22;5677;48.488;13.436;2023-05-23T15:28:26;18.80;51.80
11239;DHT22;5677;48.488;13.436;2023-05-23T15:30:53;18.80;51.80
11239;DHT22;5677;48.488;13.436;2023-05-23T15:33:21;18.80;51.80
11239;DHT22;5677;48.488;13.436;2023-05-23T15:35:48;18.80;51.80
11239;DHT22;5677;48.488;13.436;2023-05-23T15:38:16;18.80;51.80